KCNU

Details ICAO KCNU
Name CHANUTE MARTIN JOHNSON
Region United States
Timezone America/Chicago (UTC-5.0)
Plans Departing 4
Arriving 1
Stats Elevation 1,002 ft / 305 m (AMSL)
Location 37.668413° -95.485223°
Runways 2
Magnetic Variation 2.310° E
Sunrise 2018-05-25 11:06:43 UTC / 2018-05-25 06:06:43 Local
Sunset 2018-05-26 01:33:58 UTC / 2018-05-25 20:33:58 Local
Advertisement - Login to hide

Runways

ID Width Length Bearing (true) Bearing (mag) Surface Threshold Offset Overrun Length
08 135 ft / 41 m 2,166 ft / 660 m 90.00° 87.69° Grass 0 ft / 0 m 0 ft / 0 m
18 75 ft / 23 m 4,263 ft / 1,300 m 186.60° 184.29° Asphalt 0 ft / 0 m 0 ft / 0 m
26 135 ft / 41 m 2,166 ft / 660 m 270.00° 267.69° Grass 0 ft / 0 m 0 ft / 0 m
36 75 ft / 23 m 4,263 ft / 1,300 m 6.60° 4.29° Asphalt 270 ft / 82 m 0 ft / 0 m

Map

Weather


0- 5 10 15 20 25 30 35+ Temperature / ° C

Clouds and Precipitation
Forecast for 2018-05-25 18:00 UTC. Updated 2 hours ago

Ground ~20,000 ft ~40,000 ft Winds

METAR

KCNU 251852Z AUTO VRB03KT 10SM CLR 28/21 A2990 RMK AO2 SLP115 T02780211

TAF

TAF KCNU 251728Z 2518/2618 VRB05KT P6SM BKN250 FM251900 20011KT P6SM SCT200 FM260000 00000KT P6SM FEW200

Frequencies

Recorded 127.07 MHz ASOS
Unicom 122.70 MHz CTAF/UNICOM
Warning: Do not use this data for real-world aviation or navigation. No guarantee of current accuracy is given.